Time;durP1;ratioP1;P1;durP2;ratioP2;P2;SDS_P1;SDS_P2;PMS_P1;PMS_P2;Temp;Humidity;BMP_temperature;BMP_pressure;BME280_temperature;BME280_humidity;BME280_pressure;Samples;Min_cycle;Max_cycle;Signal;HPM_P1;HPM_P2
2022/05/28 00:01:01;;;;;;;13.75;2.87;;;11.70;76.70;;;;;;2223057;60;21074;-75
2022/05/28 00:03:29;;;;;;;17.85;3.20;;;11.70;76.60;;;;;;2223165;60;21062;-74
2022/05/28 00:05:57;;;;;;;10.18;2.22;;;11.70;76.30;;;;;;2222988;60;21086;-74
2022/05/28 00:08:25;;;;;;;11.60;2.22;;;11.80;76.00;;;;;;2223419;60;21075;-74
2022/05/28 00:10:55;;;;;;;18.02;3.40;;;11.80;75.80;;;;;;2222825;60;21567;-74
2022/05/28 00:13:23;;;;;;;10.85;2.42;;;11.80;75.30;;;;;;2223267;60;21058;-74
2022/05/28 00:15:50;;;;;;;12.05;2.70;;;11.90;75.00;;;;;;2222939;60;21058;-75
2022/05/28 00:18:18;;;;;;;12.88;2.45;;;11.90;74.40;;;;;;2223024;60;21134;-75
2022/05/28 00:20:45;;;;;;;15.73;3.10;;;12.00;74.50;;;;;;2223066;60;21130;-74
2022/05/28 00:23:13;;;;;;;10.85;2.67;;;11.90;74.90;;;;;;2223560;60;21157;-75
2022/05/28 00:25:40;;;;;;;16.25;3.03;;;11.80;75.10;;;;;;2443377;56;21075;-75
2022/05/28 00:28:08;;;;;;;16.92;3.03;;;11.80;75.40;;;;;;2223149;60;21051;-74
2022/05/28 00:30:36;;;;;;;15.57;3.10;;;11.70;75.50;;;;;;2223196;60;21583;-75
2022/05/28 00:33:03;;;;;;;11.15;1.95;;;11.60;75.20;;;;;;2222925;60;21635;-75
2022/05/28 00:35:30;;;;;;;14.75;3.00;;;11.60;75.80;;;;;;2222855;60;21213;-75
2022/05/28 00:37:58;;;;;;;14.15;2.50;;;11.50;75.80;;;;;;2222819;60;21312;-75
2022/05/28 00:40:27;;;;;;;6.18;2.10;;;11.40;75.90;;;;;;2223205;60;21311;-74
2022/05/28 00:42:58;;;;;;;9.75;2.10;;;11.40;76.00;;;;;;2222841;60;21134;-75
2022/05/28 00:45:26;;;;;;;11.32;2.22;;;11.40;76.20;;;;;;2222618;60;21082;-75
2022/05/28 00:47:57;;;;;;;11.23;2.10;;;11.40;76.10;;;;;;2223044;60;21628;-74
2022/05/28 00:50:25;;;;;;;6.65;2.17;;;11.40;76.00;;;;;;2223318;60;21093;-75
2022/05/28 00:52:53;;;;;;;10.48;2.05;;;11.40;76.00;;;;;;2223164;60;21066;-75
2022/05/28 00:55:21;;;;;;;8.20;1.92;;;11.40;76.00;;;;;;2222563;60;21074;-75
2022/05/28 00:57:49;;;;;;;11.55;2.72;;;11.40;76.30;;;;;;2222811;60;21408;-75
2022/05/28 01:00:19;;;;;;;9.50;2.12;;;11.30;75.80;;;;;;2223043;60;21561;-74
2022/05/28 01:02:53;;;;;;;9.48;1.85;;;11.40;75.90;;;;;;2223606;60;21133;-74
2022/05/28 01:05:33;;;;;;;16.08;2.72;;;11.40;75.60;;;;;;2222855;60;21070;-74
2022/05/28 01:08:11;;;;;;;5.55;1.60;;;11.40;75.60;;;;;;2223138;60;21081;-74
2022/05/28 01:10:48;;;;;;;9.63;2.12;;;11.40;75.60;;;;;;2223427;60;21114;-74
2022/05/28 01:13:22;;;;;;;6.37;1.83;;;11.40;75.60;;;;;;2223534;60;21078;-75
2022/05/28 01:15:55;;;;;;;6.62;1.67;;;11.40;75.40;;;;;;2223097;60;21197;-75
2022/05/28 01:18:30;;;;;;;10.40;2.20;;;11.40;75.10;;;;;;2223548;60;21150;-75
2022/05/28 01:21:01;;;;;;;10.25;2.22;;;11.40;75.20;;;;;;2223169;60;21123;-75
2022/05/28 01:23:46;;;;;;;8.88;2.42;;;11.40;75.40;;;;;;2223268;60;21133;-74
2022/05/28 01:26:24;;;;;;;8.77;2.37;;;11.40;75.40;;;;;;2223203;60;21106;-74
2022/05/28 01:28:57;;;;;;;12.73;2.12;;;11.40;75.10;;;;;;2223245;60;21146;-75
2022/05/28 01:31:27;;;;;;;11.52;2.03;;;11.40;75.20;;;;;;2223299;60;21070;-75
2022/05/28 01:33:56;;;;;;;6.45;1.73;;;11.20;75.30;;;;;;2223518;60;21074;-74
2022/05/28 01:36:24;;;;;;;8.75;2.37;;;11.20;75.40;;;;;;2222959;60;21117;-74
2022/05/28 01:38:54;;;;;;;10.70;2.62;;;11.20;75.70;;;;;;2223124;60;21130;-74
2022/05/28 01:41:23;;;;;;;5.22;1.55;;;11.20;75.90;;;;;;2223472;60;21137;-75
2022/05/28 01:43:51;;;;;;;9.25;1.90;;;11.10;75.40;;;;;;2223414;60;21070;-74
2022/05/28 01:46:20;;;;;;;4.07;2.20;;;11.10;75.30;;;;;;2223065;60;21070;-74
2022/05/28 01:48:52;;;;;;;8.60;2.25;;;11.10;75.50;;;;;;2223526;60;21146;-75
2022/05/28 01:51:22;;;;;;;5.70;1.95;;;11.10;75.50;;;;;;2223300;60;21662;-74
2022/05/28 01:56:53;;;;;;;6.55;1.80;;;11.00;75.40;;;;;;2182390;60;21667;-75
2022/05/28 01:59:23;;;;;;;3.40;1.50;;;11.00;75.60;;;;;;2223222;60;21404;-75
2022/05/28 02:01:51;;;;;;;11.88;2.05;;;11.00;75.90;;;;;;2223367;60;21097;-74
2022/05/28 02:04:19;;;;;;;3.95;1.70;;;11.00;75.90;;;;;;2223351;60;21313;-75
2022/05/28 02:06:47;;;;;;;8.18;2.05;;;11.00;75.90;;;;;;2222694;60;21147;-75
2022/05/28 02:09:17;;;;;;;5.90;1.95;;;11.10;75.60;;;;;;2223549;60;21070;-75
2022/05/28 02:12:03;;;;;;;7.00;2.20;;;11.10;75.50;;;;;;2223078;60;21235;-74
2022/05/28 02:14:43;;;;;;;9.23;2.12;;;11.10;76.20;;;;;;2223267;60;21137;-75
2022/05/28 02:17:15;;;;;;;9.63;1.98;;;11.10;76.30;;;;;;2222881;60;21074;-75
2022/05/28 02:19:54;;;;;;;8.23;1.80;;;11.10;76.50;;;;;;2223439;60;21094;-74
2022/05/28 02:22:29;;;;;;;8.57;1.87;;;11.10;76.80;;;;;;2223392;60;21624;-75
2022/05/28 02:25:04;;;;;;;9.63;2.03;;;11.10;76.90;;;;;;2223316;60;21062;-74
2022/05/28 02:27:33;;;;;;;6.85;2.00;;;11.10;77.00;;;;;;2222790;60;21130;-75
2022/05/28 02:30:01;;;;;;;13.23;2.28;;;11.10;76.50;;;;;;2223570;60;21154;-75
2022/05/28 02:32:28;;;;;;;6.75;1.90;;;11.10;76.60;;;;;;2223535;60;21150;-74
2022/05/28 02:34:55;;;;;;;11.20;2.03;;;11.10;76.50;;;;;;2222934;60;21154;-75
2022/05/28 02:37:25;;;;;;;9.77;1.92;;;11.20;76.70;;;;;;2222824;60;21214;-75
2022/05/28 02:39:52;;;;;;;13.93;2.22;;;11.20;76.80;;;;;;2223322;60;21106;-75
2022/05/28 02:42:20;;;;;;;8.32;1.77;;;11.20;77.00;;;;;;2223287;60;21130;-74
2022/05/28 02:44:48;;;;;;;9.55;2.12;;;11.30;76.60;;;;;;2223266;60;21070;-75
2022/05/28 02:47:15;;;;;;;7.35;1.75;;;11.20;76.60;;;;;;2223028;60;21599;-75
2022/05/28 02:49:42;;;;;;;7.05;1.98;;;11.20;76.50;;;;;;2223409;60;21078;-75
2022/05/28 02:52:10;;;;;;;7.10;1.50;;;11.20;76.40;;;;;;2223179;60;22020;-75
2022/05/28 02:54:38;;;;;;;9.18;1.62;;;11.20;75.90;;;;;;2223205;60;21114;-75
2022/05/28 02:57:06;;;;;;;8.32;2.25;;;11.20;75.80;;;;;;2222988;60;21181;-75
2022/05/28 02:59:34;;;;;;;7.72;2.30;;;11.20;75.70;;;;;;2223296;60;21154;-75
2022/05/28 03:02:02;;;;;;;7.97;1.87;;;11.20;75.80;;;;;;2223079;60;21075;-74
2022/05/28 03:04:30;;;;;;;7.62;2.25;;;11.20;76.20;;;;;;2444240;56;21130;-75
2022/05/28 03:06:57;;;;;;;5.55;1.80;;;11.10;76.60;;;;;;2223009;60;21133;-74
2022/05/28 03:09:24;;;;;;;10.13;2.50;;;11.20;76.80;;;;;;2223283;60;21063;-75
2022/05/28 03:11:52;;;;;;;6.50;1.62;;;11.20;76.90;;;;;;2223466;60;21071;-75
2022/05/28 03:14:19;;;;;;;9.98;2.50;;;11.20;76.90;;;;;;2223227;60;21090;-75
2022/05/28 03:16:46;;;;;;;10.52;2.53;;;11.20;76.40;;;;;;2223051;60;21561;-75
2022/05/28 03:19:14;;;;;;;5.50;1.58;;;11.20;76.60;;;;;;2223008;60;21065;-75
2022/05/28 03:21:41;;;;;;;5.72;1.80;;;11.30;76.50;;;;;;2223520;60;21066;-75
2022/05/28 03:24:09;;;;;;;16.15;2.42;;;11.30;76.50;;;;;;2223328;60;21066;-75
2022/05/28 03:26:37;;;;;;;5.62;1.80;;;11.30;76.40;;;;;;2223075;60;21218;-75
2022/05/28 03:29:05;;;;;;;11.48;2.92;;;11.30;76.20;;;;;;2223297;60;21057;-75
2022/05/28 03:31:33;;;;;;;5.90;1.62;;;11.40;76.10;;;;;;2223179;60;21046;-75
2022/05/28 03:34:00;;;;;;;9.13;2.87;;;11.40;75.40;;;;;;2223460;60;21054;-75
2022/05/28 03:36:28;;;;;;;6.65;1.67;;;11.50;75.60;;;;;;2223222;60;21162;-75
2022/05/28 03:38:55;;;;;;;6.57;1.92;;;11.50;75.70;;;;;;2223332;60;21075;-75
2022/05/28 03:41:23;;;;;;;11.48;3.25;;;11.50;75.80;;;;;;2223369;60;21059;-75
2022/05/28 03:43:50;;;;;;;10.98;2.05;;;11.50;75.90;;;;;;2223131;60;21146;-74
2022/05/28 03:46:24;;;;;;;6.70;2.03;;;11.50;75.90;;;;;;2222734;60;21075;-75
2022/05/28 03:48:53;;;;;;;6.55;1.98;;;11.50;75.70;;;;;;2223403;60;21062;-75
2022/05/28 03:51:21;;;;;;;7.95;1.92;;;11.50;75.40;;;;;;2444424;56;21070;-75
2022/05/28 03:53:48;;;;;;;8.15;2.20;;;11.50;75.50;;;;;;2223026;60;21115;-75
2022/05/28 03:56:16;;;;;;;6.03;2.03;;;11.60;75.30;;;;;;2222842;60;21652;-75
2022/05/28 03:58:43;;;;;;;9.02;2.17;;;11.50;75.40;;;;;;2477704;54;21554;-73
2022/05/28 04:01:10;;;;;;;9.50;2.00;;;11.50;75.50;;;;;;2275924;59;21068;-73
2022/05/28 04:03:38;;;;;;;12.55;3.10;;;11.50;75.70;;;;;;2275984;59;21044;-73
2022/05/28 04:06:05;;;;;;;11.23;2.28;;;11.40;75.90;;;;;;2275337;59;21080;-73
2022/05/28 04:08:33;;;;;;;12.48;2.67;;;11.40;76.10;;;;;;2275895;59;21069;-73
2022/05/28 04:11:00;;;;;;;8.27;1.95;;;11.40;76.10;;;;;;2275679;59;21072;-73
2022/05/28 04:13:28;;;;;;;12.52;2.30;;;11.40;76.20;;;;;;2275927;59;21084;-73
2022/05/28 04:15:55;;;;;;;5.45;1.83;;;11.40;75.60;;;;;;2275242;59;21057;-73
2022/05/28 04:18:22;;;;;;;17.70;2.90;;;11.50;75.70;;;;;;2275745;59;21074;-73
2022/05/28 04:20:51;;;;;;;13.15;2.25;;;11.40;76.00;;;;;;2275781;59;21077;-73
2022/05/28 04:23:19;;;;;;;8.05;2.42;;;11.40;76.30;;;;;;2507482;55;21072;-73
2022/05/28 04:25:46;;;;;;;14.25;2.87;;;11.40;76.80;;;;;;2275273;59;21646;-73
2022/05/28 04:28:13;;;;;;;11.65;2.58;;;11.40;77.10;;;;;;2275978;59;21037;-73
2022/05/28 04:30:41;;;;;;;14.45;2.37;;;11.40;77.20;;;;;;2275835;59;21693;-73
2022/05/28 04:33:08;;;;;;;12.35;2.30;;;11.40;77.50;;;;;;2275762;59;21053;-73
2022/05/28 04:35:35;;;;;;;10.88;2.22;;;11.40;77.70;;;;;;2275329;59;21694;-73
2022/05/28 04:38:02;;;;;;;12.05;2.87;;;11.40;78.00;;;;;;2276241;59;21048;-73
2022/05/28 04:40:30;;;;;;;12.13;2.30;;;11.40;77.80;;;;;;2275951;59;21037;-73
2022/05/28 04:42:57;;;;;;;11.05;3.17;;;11.50;77.50;;;;;;2276106;59;21144;-73
2022/05/28 04:45:25;;;;;;;12.00;2.35;;;11.50;76.90;;;;;;2275352;59;21163;-73
2022/05/28 04:47:52;;;;;;;13.00;3.25;;;11.50;76.80;;;;;;2276110;59;21068;-73
2022/05/28 04:50:19;;;;;;;15.63;2.75;;;11.50;77.20;;;;;;2275805;59;21057;-73
2022/05/28 04:52:47;;;;;;;15.65;3.08;;;11.50;77.00;;;;;;2276134;59;21116;-73
2022/05/28 04:55:14;;;;;;;14.00;2.10;;;11.50;77.40;;;;;;2275424;59;21064;-73
2022/05/28 04:57:42;;;;;;;13.10;3.03;;;11.40;77.50;;;;;;2275819;59;21053;-73
2022/05/28 05:00:16;;;;;;;16.75;3.08;;;11.40;78.20;;;;;;2275783;59;21069;-73
2022/05/28 05:02:44;;;;;;;19.33;3.75;;;11.40;78.50;;;;;;2276199;59;21539;-73
2022/05/28 05:05:11;;;;;;;13.88;2.47;;;11.40;78.90;;;;;;2276009;59;21116;-73
2022/05/28 05:07:38;;;;;;;14.32;3.20;;;11.40;79.20;;;;;;2275740;59;21068;-73
2022/05/28 05:10:09;;;;;;;13.80;3.22;;;11.50;79.50;;;;;;2275925;59;21548;-73
2022/05/28 05:12:36;;;;;;;15.48;2.78;;;11.50;79.70;;;;;;2275731;59;21064;-73
2022/05/28 05:15:05;;;;;;;16.95;3.17;;;11.50;79.70;;;;;;2275817;59;21073;-73
2022/05/28 05:17:32;;;;;;;13.70;3.80;;;11.50;79.10;;;;;;2275397;59;21203;-73
2022/05/28 05:19:59;;;;;;;17.90;3.35;;;11.60;79.70;;;;;;2276078;59;21076;-73
2022/05/28 05:22:27;;;;;;;11.68;2.72;;;11.60;79.30;;;;;;2275821;59;21117;-73
2022/05/28 05:24:54;;;;;;;11.20;3.15;;;11.60;79.20;;;;;;2275812;59;21229;-73
2022/05/28 05:27:22;;;;;;;15.90;3.25;;;11.60;79.20;;;;;;2275376;59;21144;-73
2022/05/28 05:29:49;;;;;;;15.23;3.15;;;11.70;78.90;;;;;;2276021;59;21590;-73
2022/05/28 05:32:16;;;;;;;13.00;2.95;;;11.70;78.70;;;;;;2275868;59;22273;-73
2022/05/28 05:34:45;;;;;;;10.20;2.75;;;11.70;78.40;;;;;;2507633;55;21073;-73
2022/05/28 05:37:12;;;;;;;13.45;2.75;;;11.70;78.20;;;;;;2275638;59;21200;-73
2022/05/28 05:39:40;;;;;;;14.13;3.60;;;11.80;78.20;;;;;;2276117;59;21080;-73
2022/05/28 05:42:08;;;;;;;10.10;3.40;;;11.80;78.00;;;;;;2275955;59;21160;-73
2022/05/28 05:44:35;;;;;;;18.70;3.33;;;11.80;77.10;;;;;;2275835;59;22182;-73
2022/05/28 05:47:03;;;;;;;9.02;2.65;;;11.90;76.80;;;;;;2275536;59;21111;-73
2022/05/28 05:49:30;;;;;;;13.32;3.15;;;11.90;76.70;;;;;;2275946;59;21069;-73
2022/05/28 05:51:57;;;;;;;18.70;3.15;;;11.90;76.40;;;;;;2275871;59;21072;-73
2022/05/28 05:54:25;;;;;;;10.50;2.60;;;11.90;76.00;;;;;;2275884;59;21175;-73
2022/05/28 05:56:53;;;;;;;13.20;2.85;;;11.90;76.10;;;;;;2275522;59;21076;-73
2022/05/28 05:59:20;;;;;;;11.73;2.45;;;11.90;76.30;;;;;;2275862;59;21079;-73
2022/05/28 06:01:48;;;;;;;17.85;3.10;;;11.90;76.40;;;;;;2507823;55;21069;-73
2022/05/28 06:04:16;;;;;;;12.95;2.40;;;11.90;76.50;;;;;;2276398;59;21104;-73
2022/05/28 06:06:43;;;;;;;11.32;2.62;;;12.00;76.70;;;;;;2275334;59;21065;-73
2022/05/28 06:09:11;;;;;;;11.65;3.17;;;12.10;76.90;;;;;;2275781;59;21638;-73
2022/05/28 06:11:38;;;;;;;12.55;2.55;;;12.20;76.60;;;;;;2275922;59;21061;-73
2022/05/28 06:14:06;;;;;;;12.37;2.80;;;12.20;76.10;;;;;;2275803;59;21156;-73
2022/05/28 06:16:34;;;;;;;10.57;2.70;;;12.30;74.60;;;;;;2275626;59;21133;-73
2022/05/28 06:19:01;;;;;;;13.00;3.55;;;12.30;74.10;;;;;;2275856;59;21582;-73
2022/05/28 06:21:29;;;;;;;8.63;2.42;;;12.30;74.10;;;;;;2275948;59;21080;-73
2022/05/28 06:23:56;;;;;;;13.57;2.42;;;12.30;73.70;;;;;;2276034;59;21071;-73
2022/05/28 06:26:24;;;;;;;8.15;2.67;;;12.30;73.40;;;;;;2275671;59;21561;-73
2022/05/28 06:28:51;;;;;;;7.00;2.17;;;12.30;72.90;;;;;;2275834;59;21057;-73
2022/05/28 06:31:18;;;;;;;9.75;2.37;;;12.30;73.20;;;;;;2276030;59;21085;-73
2022/05/28 06:33:45;;;;;;;9.60;2.80;;;12.40;73.90;;;;;;2275772;59;21073;-73
2022/05/28 06:36:13;;;;;;;14.20;2.22;;;12.40;73.40;;;;;;2275760;59;21338;-73
2022/05/28 06:38:40;;;;;;;8.73;2.55;;;12.40;74.30;;;;;;2275933;59;21088;-73
2022/05/28 06:41:08;;;;;;;8.95;2.65;;;12.50;73.60;;;;;;2276018;59;21061;-74
2022/05/28 06:43:36;;;;;;;11.57;3.00;;;12.50;73.60;;;;;;2275827;59;21124;-73
2022/05/28 06:46:04;;;;;;;14.50;2.50;;;12.50;73.20;;;;;;2275575;59;21142;-73
2022/05/28 06:48:31;;;;;;;15.20;2.70;;;12.50;72.60;;;;;;2275647;59;21127;-73
2022/05/28 06:51:04;;;;;;;8.80;2.70;;;12.50;72.80;;;;;;2275843;59;21072;-73
2022/05/28 06:53:34;;;;;;;14.82;2.72;;;12.60;73.30;;;;;;2276053;59;21108;-73
2022/05/28 06:56:01;;;;;;;13.35;2.85;;;12.70;72.80;;;;;;2275820;59;21073;-73
2022/05/28 06:58:29;;;;;;;10.85;2.90;;;12.70;72.80;;;;;;2275672;59;21144;-73
2022/05/28 07:00:56;;;;;;;10.07;2.55;;;12.80;72.20;;;;;;2275787;59;21065;-73
2022/05/28 07:03:26;;;;;;;12.48;2.72;;;12.80;71.50;;;;;;2275896;59;21144;-73
2022/05/28 07:05:54;;;;;;;12.27;2.20;;;12.70;71.40;;;;;;2275612;59;21578;-73
2022/05/28 07:08:22;;;;;;;17.52;2.83;;;12.80;70.40;;;;;;2275862;59;21152;-73
2022/05/28 07:10:51;;;;;;;12.45;2.45;;;12.80;70.70;;;;;;2275861;59;21219;-73
2022/05/28 07:13:19;;;;;;;10.48;2.17;;;12.90;69.30;;;;;;2275672;59;21128;-73
2022/05/28 07:15:47;;;;;;;11.10;2.70;;;13.00;69.90;;;;;;2275386;59;21123;-73
2022/05/28 07:18:14;;;;;;;10.50;2.03;;;13.10;69.00;;;;;;2275761;59;21068;-73
2022/05/28 07:20:42;;;;;;;15.85;2.90;;;13.20;68.30;;;;;;2275784;59;21072;-74
2022/05/28 07:23:17;;;;;;;6.62;2.03;;;13.20;66.50;;;;;;2275940;59;21056;-73
2022/05/28 07:25:46;;;;;;;13.40;2.75;;;13.20;65.50;;;;;;2275627;59;21088;-73
2022/05/28 07:28:27;;;;;;;12.30;2.92;;;13.30;66.10;;;;;;2275835;59;21068;-73
2022/05/28 07:30:56;;;;;;;11.43;2.22;;;13.30;66.50;;;;;;2276043;59;21215;-73
2022/05/28 07:33:25;;;;;;;13.43;2.17;;;13.30;66.50;;;;;;2275981;59;21053;-73
2022/05/28 07:35:52;;;;;;;14.05;3.25;;;13.30;65.00;;;;;;2275587;59;21124;-73
2022/05/28 07:38:20;;;;;;;7.65;2.40;;;13.30;65.20;;;;;;2276186;59;21142;-73
2022/05/28 07:40:48;;;;;;;10.45;2.45;;;13.30;65.20;;;;;;2275785;59;21076;-73
2022/05/28 07:43:16;;;;;;;16.77;3.08;;;13.20;65.40;;;;;;2507621;55;21120;-73
2022/05/28 07:45:44;;;;;;;8.57;2.47;;;13.20;65.40;;;;;;2275102;59;21061;-73
2022/05/28 07:48:13;;;;;;;9.40;2.78;;;13.20;65.10;;;;;;2275834;59;21073;-73
2022/05/28 07:50:41;;;;;;;9.23;2.05;;;13.10;63.80;;;;;;2275759;59;21315;-73
2022/05/28 07:53:09;;;;;;;12.15;2.75;;;13.20;64.00;;;;;;2275791;59;21140;-73
2022/05/28 07:55:37;;;;;;;17.15;3.05;;;13.30;64.30;;;;;;2275459;59;21075;-73
2022/05/28 07:58:10;;;;;;;18.80;3.12;;;13.30;64.50;;;;;;2275958;59;21143;-73
2022/05/28 08:00:42;;;;;;;13.62;2.78;;;13.40;63.80;;;;;;2276037;59;21131;-73
2022/05/28 08:03:10;;;;;;;8.23;2.08;;;13.50;64.50;;;;;;2275921;59;21057;-73
2022/05/28 08:05:39;;;;;;;12.68;2.62;;;13.60;64.60;;;;;;2275507;59;21077;-73
2022/05/28 08:08:09;;;;;;;8.00;2.70;;;13.70;65.00;;;;;;2275953;59;21614;-73
2022/05/28 08:10:36;;;;;;;13.75;2.40;;;13.80;64.50;;;;;;2275995;59;21108;-73
2022/05/28 08:13:06;;;;;;;13.13;2.97;;;13.80;63.90;;;;;;2276076;59;21650;-73
2022/05/28 08:15:34;;;;;;;15.02;3.25;;;13.90;63.40;;;;;;2275599;59;21080;-73
2022/05/28 08:18:01;;;;;;;15.70;3.03;;;13.80;61.90;;;;;;2275973;59;21145;-73
2022/05/28 08:23:18;;;;;;;18.23;2.53;;;13.90;62.40;;;;;;2507765;55;21636;-73
2022/05/28 08:25:47;;;;;;;11.73;2.80;;;13.90;62.70;;;;;;2275478;59;21064;-73
2022/05/28 08:28:16;;;;;;;12.60;2.87;;;14.00;62.60;;;;;;2276038;59;21203;-73
2022/05/28 08:30:44;;;;;;;10.43;2.30;;;14.00;62.90;;;;;;2275885;59;21152;-73
2022/05/28 08:33:14;;;;;;;15.30;2.55;;;14.00;62.60;;;;;;2507926;55;21060;-73
2022/05/28 08:35:42;;;;;;;8.95;2.10;;;14.10;62.60;;;;;;2275527;59;21073;-73
2022/05/28 08:38:12;;;;;;;6.95;1.90;;;14.00;62.70;;;;;;2507960;55;21084;-73
2022/05/28 08:40:44;;;;;;;8.70;2.08;;;14.00;64.30;;;;;;2507808;55;21084;-73
2022/05/28 08:43:14;;;;;;;9.52;2.47;;;13.90;64.90;;;;;;2276189;59;21062;-73
2022/05/28 08:45:42;;;;;;;7.15;1.98;;;13.80;64.80;;;;;;2275695;59;21140;-73
2022/05/28 08:48:10;;;;;;;7.05;1.95;;;13.80;65.40;;;;;;2275976;59;21068;-73
2022/05/28 08:50:47;;;;;;;15.00;2.42;;;13.80;65.30;;;;;;2275982;59;21120;-73
2022/05/28 08:53:17;;;;;;;8.32;1.90;;;13.80;64.30;;;;;;2275928;59;21073;-73
2022/05/28 08:55:48;;;;;;;12.85;2.30;;;13.90;64.00;;;;;;2275500;59;21587;-73
2022/05/28 08:58:19;;;;;;;9.25;2.75;;;13.90;63.90;;;;;;2276006;59;21152;-73
2022/05/28 09:00:51;;;;;;;14.90;2.70;;;13.90;64.30;;;;;;2275804;59;21061;-73
2022/05/28 09:03:22;;;;;;;12.25;2.35;;;14.00;63.80;;;;;;2276067;59;21108;-73
2022/05/28 09:05:54;;;;;;;9.80;2.55;;;14.10;63.60;;;;;;2275727;59;21084;-73
2022/05/28 09:08:28;;;;;;;15.75;3.00;;;14.10;62.90;;;;;;2276086;59;21140;-73
2022/05/28 09:10:59;;;;;;;8.95;2.15;;;14.20;62.70;;;;;;2276138;59;21128;-73
2022/05/28 09:13:31;;;;;;;14.52;2.28;;;14.10;63.50;;;;;;2276262;59;21175;-73
2022/05/28 09:16:00;;;;;;;17.87;3.40;;;14.20;63.80;;;;;;2275232;59;21468;-73
2022/05/28 09:18:36;;;;;;;4.15;1.35;;;14.20;63.90;;;;;;2275813;59;21145;-73
2022/05/28 09:21:05;;;;;;;12.20;2.62;;;14.30;63.90;;;;;;2275783;59;21061;-73
2022/05/28 09:23:41;;;;;;;13.00;2.50;;;14.30;63.30;;;;;;2276001;59;21069;-73
2022/05/28 09:26:10;;;;;;;7.60;1.80;;;14.30;63.40;;;;;;2275551;59;21063;-73
2022/05/28 09:28:54;;;;;;;11.98;2.05;;;14.40;63.00;;;;;;2275940;59;21048;-73
2022/05/28 09:31:36;;;;;;;13.40;2.62;;;14.50;63.40;;;;;;2275945;59;21187;-73
2022/05/28 09:34:38;;;;;;;10.35;2.30;;;14.50;62.30;;;;;;2276080;59;21154;-72
2022/05/28 09:37:13;;;;;;;14.93;3.03;;;14.40;61.50;;;;;;2487147;54;21120;-73
2022/05/28 09:39:52;;;;;;;11.57;2.05;;;14.40;62.10;;;;;;2276193;59;21080;-73
2022/05/28 09:42:28;;;;;;;6.85;2.00;;;14.40;62.90;;;;;;2275948;59;21068;-73
2022/05/28 09:45:11;;;;;;;6.35;1.77;;;14.30;61.90;;;;;;2275989;59;21069;-73
2022/05/28 09:47:46;;;;;;;10.32;1.98;;;14.30;61.00;;;;;;2275328;59;21084;-73
2022/05/28 09:50:21;;;;;;;12.90;2.03;;;14.30;60.50;;;;;;2275992;59;21072;-73
2022/05/28 09:55:53;;;;;;;7.75;1.83;;;14.40;60.40;;;;;;2275624;59;21041;-73
2022/05/28 09:58:23;;;;;;;8.30;2.22;;;14.50;61.00;;;;;;2365236;53;70408;-75
2022/05/28 10:00:50;;;;;;;7.57;2.70;;;14.60;60.20;;;;;;2343622;57;21052;-74
2022/05/28 10:06:16;;;;;;;11.77;2.58;;;14.70;59.30;;;;;;2341846;53;21056;-74
2022/05/28 10:08:43;;;;;;;9.27;1.90;;;14.80;59.00;;;;;;2342785;57;21124;-74
2022/05/28 10:11:18;;;;;;;10.20;2.47;;;14.80;59.50;;;;;;2342561;57;21125;-74
2022/05/28 10:13:48;;;;;;;7.45;2.00;;;14.70;58.70;;;;;;2342636;57;21689;-74
2022/05/28 10:16:19;;;;;;;13.95;2.30;;;14.70;59.30;;;;;;2343410;53;21133;-74
2022/05/28 10:18:55;;;;;;;9.68;1.75;;;14.80;58.30;;;;;;2342248;57;21183;-74
2022/05/28 10:21:31;;;;;;;6.72;2.05;;;14.90;58.50;;;;;;2354941;53;21132;-75
2022/05/28 10:24:01;;;;;;;11.10;2.03;;;14.90;57.40;;;;;;2342162;57;21317;-74
2022/05/28 10:26:34;;;;;;;7.30;2.33;;;14.90;58.20;;;;;;2342085;57;21060;-74
2022/05/28 10:29:03;;;;;;;;;;;15.00;58.50;;;;;;2346118;57;21108;-74
2022/05/28 10:31:32;;;;;;;9.07;1.90;;;15.00;58.60;;;;;;2342886;57;20098;-75
2022/05/28 10:33:59;;;;;;;7.40;1.98;;;15.00;58.70;;;;;;2342315;57;21104;-74
2022/05/28 10:36:32;;;;;;;7.35;1.95;;;15.10;57.60;;;;;;2439421;53;21120;-74
2022/05/28 10:39:06;;;;;;;9.43;2.10;;;15.10;57.80;;;;;;2407366;53;21065;-75
2022/05/28 10:41:35;;;;;;;8.13;1.98;;;15.20;57.70;;;;;;2342529;57;21117;-75
2022/05/28 10:44:03;;;;;;;7.93;1.77;;;15.30;56.30;;;;;;2342536;57;21160;-75
2022/05/28 10:46:45;;;;;;;9.75;1.70;;;15.30;56.40;;;;;;2342126;57;21061;-75
2022/05/28 10:49:27;;;;;;;10.68;2.33;;;15.40;56.10;;;;;;2342513;57;21038;-75
2022/05/28 10:52:02;;;;;;;11.68;2.08;;;15.40;56.20;;;;;;2342550;57;21061;-75
2022/05/28 10:54:46;;;;;;;8.50;2.10;;;15.50;55.80;;;;;;2342681;57;21124;-74
2022/05/28 11:00:43;;;;;;;10.65;2.40;;;15.50;56.60;;;;;;2479697;53;27747;-74
2022/05/28 11:04:01;;;;;;;14.30;3.12;;;15.80;56.90;;;;;;2346381;57;21129;-76
2022/05/28 11:06:57;;;;;;;12.27;2.67;;;15.90;56.70;;;;;;2409172;53;21579;-76
2022/05/28 11:09:35;;;;;;;12.77;2.47;;;15.90;55.70;;;;;;2386697;52;21125;-74
2022/05/28 11:12:11;;;;;;;7.65;1.90;;;15.90;55.10;;;;;;2374311;56;21115;-75
2022/05/28 11:14:59;;;;;;;10.30;2.45;;;15.90;55.10;;;;;;2386035;52;21043;-75
2022/05/28 11:17:39;;;;;;;11.15;2.15;;;15.80;55.70;;;;;;2373785;56;21106;-75
2022/05/28 11:20:19;;;;;;;19.00;3.25;;;15.60;56.00;;;;;;2374043;56;21137;-75
2022/05/28 11:23:26;;;;;;;8.18;1.52;;;15.60;56.80;;;;;;2384870;52;21043;-75
2022/05/28 11:26:04;;;;;;;11.05;2.22;;;15.50;56.40;;;;;;2373568;56;21118;-75
2022/05/28 11:28:56;;;;;;;7.10;2.40;;;15.40;57.10;;;;;;2373837;56;21407;-75
2022/05/28 11:31:31;;;;;;;6.32;2.05;;;15.30;58.10;;;;;;2373813;56;21111;-76
2022/05/28 11:34:04;;;;;;;9.75;1.90;;;15.30;59.90;;;;;;2373882;56;21047;-76
2022/05/28 11:36:37;;;;;;;10.20;2.00;;;15.20;61.40;;;;;;2374293;56;21035;-76
2022/05/28 11:39:11;;;;;;;13.18;3.78;;;15.20;62.30;;;;;;2374249;56;22170;-75
2022/05/28 11:41:54;;;;;;;8.77;2.30;;;15.20;63.20;;;;;;2373879;56;21027;-75
2022/05/28 11:44:29;;;;;;;11.63;2.50;;;15.20;62.00;;;;;;2374213;56;21137;-76
2022/05/28 11:47:01;;;;;;;8.98;2.70;;;15.10;61.40;;;;;;2373687;56;21102;-75
2022/05/28 11:52:30;;;;;;;9.07;2.00;;;15.10;60.70;;;;;;2374219;52;21347;-75
2022/05/28 11:55:04;;;;;;;10.05;2.33;;;15.10;60.40;;;;;;2373913;56;21047;-75
2022/05/28 11:57:37;;;;;;;10.10;2.40;;;15.20;60.00;;;;;;2373554;56;21050;-75
2022/05/28 12:00:08;;;;;;;14.68;2.60;;;15.30;59.60;;;;;;2373898;56;21114;-76
2022/05/28 12:02:41;;;;;;;11.38;2.25;;;15.60;60.10;;;;;;2454858;52;21102;-76
2022/05/28 12:05:17;;;;;;;13.20;3.10;;;15.70;58.80;;;;;;2373686;56;21114;-76
2022/05/28 12:07:46;;;;;;;9.63;2.50;;;15.70;57.90;;;;;;2385196;52;21059;-76
2022/05/28 12:10:33;;;;;;;8.30;2.33;;;15.70;58.00;;;;;;2373250;56;21135;-76
2022/05/28 12:13:02;;;;;;;8.27;2.20;;;15.70;57.80;;;;;;2373065;56;21039;-75
2022/05/28 12:15:31;;;;;;;12.43;2.72;;;15.80;58.10;;;;;;2372839;56;21110;-75
2022/05/28 12:18:03;;;;;;;9.82;2.42;;;15.80;58.20;;;;;;2373263;56;21042;-75
2022/05/28 12:20:33;;;;;;;12.00;2.65;;;15.80;58.30;;;;;;2430910;52;21115;-76
2022/05/28 12:23:03;;;;;;;9.18;2.03;;;15.70;58.50;;;;;;2418373;52;21537;-75
2022/05/28 12:25:36;;;;;;;15.70;2.50;;;15.70;58.30;;;;;;2372617;56;21039;-75
2022/05/28 12:28:22;;;;;;;10.68;3.20;;;15.80;58.20;;;;;;2372960;56;21047;-75
2022/05/28 12:30:53;;;;;;;10.82;2.12;;;15.80;57.40;;;;;;2373153;56;21102;-76
2022/05/28 12:33:26;;;;;;;11.70;2.28;;;15.70;57.20;;;;;;2372974;56;21538;-76
2022/05/28 12:35:56;;;;;;;;;;;15.70;57.10;;;;;;2427796;52;21047;-76
2022/05/28 12:38:43;;;;;;;12.60;3.00;;;15.80;57.40;;;;;;2372768;56;20117;-75
2022/05/28 12:41:19;;;;;;;15.00;2.28;;;15.80;56.30;;;;;;2373306;56;21401;-74
2022/05/28 12:43:54;;;;;;;8.27;1.73;;;15.70;56.30;;;;;;2393818;52;21106;-74
2022/05/28 12:46:34;;;;;;;10.40;1.98;;;15.60;56.20;;;;;;2372635;56;21047;-76
2022/05/28 12:49:08;;;;;;;9.68;1.70;;;15.60;55.80;;;;;;2372544;56;21118;-76
2022/05/28 12:51:48;;;;;;;10.30;1.98;;;15.60;55.80;;;;;;2373076;56;21067;-75
2022/05/28 12:54:25;;;;;;;11.88;1.60;;;15.50;55.30;;;;;;2372732;56;21189;-75
2022/05/28 12:57:05;;;;;;;13.43;2.03;;;15.40;55.80;;;;;;2372578;56;21035;-75
2022/05/28 12:59:35;;;;;;;8.20;2.00;;;15.30;56.80;;;;;;2373131;56;21608;-76
2022/05/28 13:02:09;;;;;;;8.82;1.90;;;15.30;57.00;;;;;;2373040;56;21126;-75
2022/05/28 13:04:41;;;;;;;8.65;1.65;;;15.40;57.10;;;;;;2372869;56;21118;-76
2022/05/28 13:07:22;;;;;;;5.22;1.48;;;15.40;57.30;;;;;;2375319;52;21110;-75
2022/05/28 13:09:55;;;;;;;7.10;1.83;;;15.40;56.00;;;;;;2373061;56;21137;-76
2022/05/28 13:12:30;;;;;;;14.80;2.22;;;15.40;56.20;;;;;;2407568;52;21063;-75
2022/05/28 13:15:34;;;;;;;4.37;1.55;;;15.40;56.20;;;;;;2439582;52;21054;-75
2022/05/28 13:18:55;;;;;;;7.35;2.00;;;15.50;57.30;;;;;;2351218;56;21114;-76